createdAt,value
2017-06-27T00:00:22.512Z,951.55
2017-06-27T00:01:22.628Z,951.54
2017-06-27T00:02:22.565Z,951.55
2017-06-27T00:03:22.493Z,951.52
2017-06-27T00:04:22.487Z,951.5
2017-06-27T00:05:22.482Z,951.53
2017-06-27T00:06:22.626Z,951.54
2017-06-27T00:07:22.519Z,951.53
2017-06-27T00:08:22.589Z,951.57
2017-06-27T00:09:22.475Z,951.59
2017-06-27T00:10:22.475Z,951.59
2017-06-27T00:11:22.446Z,951.55
2017-06-27T00:12:22.438Z,951.58
2017-06-27T00:13:22.439Z,951.57
2017-06-27T00:14:22.552Z,951.59
2017-06-27T00:15:22.422Z,951.6
2017-06-27T00:16:22.414Z,951.59
2017-06-27T00:17:22.409Z,951.61
2017-06-27T00:18:22.402Z,951.6
2017-06-27T00:19:22.398Z,951.64
2017-06-27T00:20:22.393Z,951.61
2017-06-27T00:21:22.386Z,951.65
2017-06-27T00:22:22.378Z,951.61
2017-06-27T00:23:22.371Z,951.59
2017-06-27T00:24:22.366Z,951.57
2017-06-27T00:25:22.360Z,951.55
2017-06-27T00:26:22.355Z,951.55
2017-06-27T00:27:22.347Z,951.51
2017-06-27T00:28:22.342Z,951.54
2017-06-27T00:29:22.335Z,951.54
2017-06-27T00:30:22.353Z,951.53
2017-06-27T00:31:22.322Z,951.5
2017-06-27T00:32:22.335Z,951.47
2017-06-27T00:33:22.347Z,951.49
2017-06-27T00:34:22.307Z,951.47
2017-06-27T00:35:22.298Z,951.45
2017-06-27T00:36:22.292Z,951.45
2017-06-27T00:37:22.324Z,951.47
2017-06-27T00:38:22.279Z,951.43
2017-06-27T00:39:22.273Z,951.48
2017-06-27T00:40:22.267Z,951.4
2017-06-27T00:41:22.261Z,951.45
2017-06-27T00:42:22.256Z,951.41
2017-06-27T00:43:22.256Z,951.42
2017-06-27T00:44:22.245Z,951.4
2017-06-27T00:45:22.237Z,951.36
2017-06-27T00:46:22.231Z,951.38
2017-06-27T00:47:22.225Z,951.39
2017-06-27T00:48:22.220Z,951.42
2017-06-27T00:49:22.211Z,951.41
2017-06-27T00:50:22.205Z,951.38
2017-06-27T00:51:22.203Z,951.39
2017-06-27T00:52:22.194Z,951.41
2017-06-27T00:53:22.188Z,951.36
2017-06-27T00:54:22.181Z,951.37
2017-06-27T00:55:22.176Z,951.38
2017-06-27T00:56:22.168Z,951.36
2017-06-27T00:57:22.164Z,951.38
2017-06-27T00:58:22.158Z,951.4
2017-06-27T00:59:22.150Z,951.39
2017-06-27T01:00:22.143Z,951.41
2017-06-27T01:01:22.142Z,951.43
2017-06-27T01:02:22.131Z,951.43
2017-06-27T01:03:22.123Z,951.42
2017-06-27T01:04:22.120Z,951.41
2017-06-27T01:05:22.113Z,951.42
2017-06-27T01:06:22.106Z,951.41
2017-06-27T01:07:22.102Z,951.39
2017-06-27T01:08:22.094Z,951.38
2017-06-27T01:09:22.087Z,951.34
2017-06-27T01:10:22.092Z,951.38
2017-06-27T01:11:22.074Z,951.34
2017-06-27T01:12:22.068Z,951.39
2017-06-27T01:13:22.062Z,951.39
2017-06-27T01:14:22.053Z,951.35
2017-06-27T01:15:22.048Z,951.38
2017-06-27T01:16:22.043Z,951.35
2017-06-27T01:17:22.035Z,951.34
2017-06-27T01:18:22.028Z,951.34
2017-06-27T01:19:22.024Z,951.35
2017-06-27T01:20:22.016Z,951.38
2017-06-27T01:21:22.011Z,951.36
2017-06-27T01:22:22.004Z,951.38
2017-06-27T01:23:21.998Z,951.38
2017-06-27T01:24:21.989Z,951.33
2017-06-27T01:25:21.983Z,951.34
2017-06-27T01:26:21.977Z,951.25
2017-06-27T01:27:21.970Z,951.23
2017-06-27T01:28:21.965Z,951.23
2017-06-27T01:29:21.958Z,951.22
2017-06-27T01:30:21.951Z,951.25
2017-06-27T01:31:21.944Z,951.2
2017-06-27T01:32:21.949Z,951.22
2017-06-27T01:33:21.930Z,951.21
2017-06-27T01:34:21.926Z,951.23
2017-06-27T01:35:21.919Z,951.23
2017-06-27T01:36:21.912Z,951.17
2017-06-27T01:37:21.906Z,951.21
2017-06-27T01:38:21.899Z,951.17
2017-06-27T01:39:21.893Z,951.16
2017-06-27T01:40:21.885Z,951.11
2017-06-27T01:41:21.881Z,951.12
2017-06-27T01:42:21.873Z,951.17
2017-06-27T01:43:21.867Z,951.18
2017-06-27T01:44:21.859Z,951.15
2017-06-27T01:45:21.853Z,951.18
2017-06-27T01:46:21.846Z,951.25
2017-06-27T01:47:21.843Z,951.23
2017-06-27T01:48:21.833Z,951.24
2017-06-27T01:49:21.826Z,951.21
2017-06-27T01:50:21.822Z,951.2
2017-06-27T01:51:21.813Z,951.18
2017-06-27T01:52:21.807Z,951.15
2017-06-27T01:53:21.801Z,951.1
2017-06-27T01:54:21.793Z,951.06
2017-06-27T01:55:21.786Z,951.09
2017-06-27T01:56:21.779Z,951.1
2017-06-27T01:57:21.773Z,951.13
2017-06-27T01:58:21.768Z,951.11
2017-06-27T01:59:21.761Z,951.1
2017-06-27T02:00:21.755Z,951.11
2017-06-27T02:01:21.748Z,951.09
2017-06-27T02:02:21.740Z,951.1
2017-06-27T02:03:21.734Z,951.08
2017-06-27T02:04:21.727Z,951.05
2017-06-27T02:05:21.729Z,951.08
2017-06-27T02:06:21.713Z,951.07
2017-06-27T02:07:21.725Z,951.06
2017-06-27T02:08:21.701Z,951.11
2017-06-27T02:09:21.693Z,951.12
2017-06-27T02:10:21.686Z,951.13
2017-06-27T02:11:21.680Z,951.09
2017-06-27T02:12:21.673Z,951.08
2017-06-27T02:13:21.666Z,951.08
2017-06-27T02:14:21.660Z,951.07
2017-06-27T02:15:21.653Z,951.05
2017-06-27T02:16:21.647Z,951.07
2017-06-27T02:17:21.639Z,951.07
2017-06-27T02:18:21.634Z,951.08
2017-06-27T02:19:21.629Z,951.09
2017-06-27T02:20:21.631Z,951.03
2017-06-27T02:21:21.622Z,951.02
2017-06-27T02:22:21.607Z,951.01
2017-06-27T02:23:21.601Z,951.01
2017-06-27T02:24:21.595Z,950.99
2017-06-27T02:25:21.681Z,950.97
2017-06-27T02:26:21.600Z,951.04
2017-06-27T02:27:21.574Z,951.02
2017-06-27T02:28:21.567Z,950.97
2017-06-27T02:29:21.581Z,951.01
2017-06-27T02:30:21.554Z,951.02
2017-06-27T02:31:21.548Z,950.98
2017-06-27T02:32:21.541Z,951
2017-06-27T02:33:21.536Z,950.98
2017-06-27T02:34:21.527Z,950.97
2017-06-27T02:35:21.521Z,950.98
2017-06-27T02:36:21.518Z,950.94
2017-06-27T02:37:21.508Z,950.97
2017-06-27T02:38:21.502Z,950.95
2017-06-27T02:39:21.494Z,950.93
2017-06-27T02:40:21.488Z,950.98
2017-06-27T02:41:21.481Z,950.9
2017-06-27T02:42:21.491Z,950.92
2017-06-27T02:43:21.467Z,950.92
2017-06-27T02:44:21.465Z,950.89
2017-06-27T02:45:21.454Z,950.91
2017-06-27T02:46:21.448Z,950.91
2017-06-27T02:47:21.442Z,950.9
2017-06-27T02:48:21.434Z,950.9
2017-06-27T02:49:21.427Z,950.89
2017-06-27T02:50:21.422Z,950.91
2017-06-27T02:51:21.415Z,950.93
2017-06-27T02:52:21.408Z,951.02
2017-06-27T02:53:21.402Z,951.02
2017-06-27T02:54:21.397Z,951
2017-06-27T02:55:21.393Z,951
2017-06-27T02:56:21.384Z,951.01
2017-06-27T02:57:21.376Z,950.96
2017-06-27T02:58:21.378Z,950.93
2017-06-27T02:59:21.384Z,950.93
2017-06-27T03:00:21.357Z,950.9
2017-06-27T03:01:21.350Z,950.88
2017-06-27T03:02:21.344Z,950.91
2017-06-27T03:03:21.338Z,950.94
2017-06-27T03:04:21.332Z,950.91
2017-06-27T03:05:21.325Z,950.89
2017-06-27T03:06:21.343Z,950.87
2017-06-27T03:07:21.329Z,950.86
2017-06-27T03:08:21.303Z,950.89
2017-06-27T03:09:21.307Z,950.85
2017-06-27T03:10:21.291Z,950.85
2017-06-27T03:11:21.285Z,950.85
2017-06-27T03:12:21.278Z,950.82
2017-06-27T03:13:21.273Z,950.84
2017-06-27T03:14:21.266Z,950.88
2017-06-27T03:15:21.259Z,950.87
2017-06-27T03:16:21.253Z,950.89
2017-06-27T03:17:21.262Z,950.87
2017-06-27T03:18:21.261Z,950.82
2017-06-27T03:19:21.278Z,950.8
2017-06-27T03:20:21.228Z,950.77
2017-06-27T03:21:21.221Z,950.75
2017-06-27T03:22:21.214Z,950.78
2017-06-27T03:23:21.207Z,950.73
2017-06-27T03:24:21.201Z,950.71
2017-06-27T03:25:21.195Z,950.71
2017-06-27T03:26:21.187Z,950.63
2017-06-27T03:27:21.181Z,950.57
2017-06-27T03:28:21.174Z,950.69
2017-06-27T03:29:21.169Z,950.73
2017-06-27T03:30:21.162Z,950.68
2017-06-27T03:31:21.155Z,950.68
2017-06-27T03:32:21.150Z,950.64
2017-06-27T03:33:21.144Z,950.64
2017-06-27T03:34:21.148Z,950.63
2017-06-27T03:35:21.130Z,950.57
2017-06-27T03:36:21.123Z,950.57
2017-06-27T03:37:21.118Z,950.54
2017-06-27T03:38:21.111Z,950.54
2017-06-27T03:39:21.105Z,950.56
2017-06-27T03:40:21.099Z,950.59
2017-06-27T03:41:21.092Z,950.59
2017-06-27T03:42:21.086Z,950.59
2017-06-27T03:43:21.080Z,950.59
2017-06-27T03:44:21.073Z,950.55
2017-06-27T03:45:21.080Z,950.54
2017-06-27T03:46:21.062Z,950.54
2017-06-27T03:47:21.067Z,950.58
2017-06-27T03:48:21.046Z,950.6
2017-06-27T03:49:21.045Z,950.58
2017-06-27T03:50:21.046Z,950.61
2017-06-27T03:51:21.051Z,950.62
2017-06-27T03:52:21.023Z,950.66
2017-06-27T03:53:21.017Z,950.67
2017-06-27T03:54:21.011Z,950.67
2017-06-27T03:55:21.004Z,950.69
2017-06-27T03:56:20.998Z,950.73
2017-06-27T03:57:20.993Z,950.69
2017-06-27T03:58:20.992Z,950.68
2017-06-27T03:59:20.979Z,950.68
2017-06-27T04:00:20.994Z,950.67
2017-06-27T04:01:20.967Z,950.66
2017-06-27T04:02:20.961Z,950.64
2017-06-27T04:03:20.955Z,950.65
2017-06-27T04:04:20.950Z,950.62
2017-06-27T04:05:20.943Z,950.65
2017-06-27T04:06:20.937Z,950.65
2017-06-27T04:07:20.931Z,950.67
2017-06-27T04:08:20.926Z,950.68
2017-06-27T04:09:20.920Z,950.65
2017-06-27T04:10:20.913Z,950.7
2017-06-27T04:11:20.958Z,950.63
2017-06-27T04:12:20.905Z,950.64
2017-06-27T04:13:20.912Z,950.66
2017-06-27T04:14:20.890Z,950.65
2017-06-27T04:15:20.884Z,950.69
2017-06-27T04:16:20.879Z,950.65
2017-06-27T04:17:20.874Z,950.66
2017-06-27T04:18:20.867Z,950.67
2017-06-27T04:19:20.861Z,950.66
2017-06-27T04:20:20.857Z,950.67
2017-06-27T04:21:20.850Z,950.7
2017-06-27T04:22:20.845Z,950.68
2017-06-27T04:23:20.839Z,950.7
2017-06-27T04:24:20.834Z,950.69
2017-06-27T04:25:20.829Z,950.71
2017-06-27T04:26:20.822Z,950.68
2017-06-27T04:27:20.818Z,950.73
2017-06-27T04:28:20.813Z,950.75
2017-06-27T04:29:20.807Z,950.75
2017-06-27T04:30:20.802Z,950.73
2017-06-27T04:31:20.797Z,950.7
2017-06-27T04:32:20.793Z,950.68
2017-06-27T04:33:20.790Z,950.69
2017-06-27T04:34:20.781Z,950.64
2017-06-27T04:35:20.804Z,950.63
2017-06-27T04:36:20.770Z,950.66
2017-06-27T04:37:20.766Z,950.63
2017-06-27T04:38:20.760Z,950.59
2017-06-27T04:39:20.755Z,950.63
2017-06-27T04:40:20.749Z,950.59
2017-06-27T04:41:20.746Z,950.62
2017-06-27T04:42:20.743Z,950.6
2017-06-27T04:43:20.736Z,950.61
2017-06-27T04:44:20.732Z,950.62
2017-06-27T04:45:20.726Z,950.62
2017-06-27T04:46:20.722Z,950.67
2017-06-27T04:47:20.717Z,950.67
2017-06-27T04:48:20.712Z,950.67
2017-06-27T04:49:20.708Z,950.65
2017-06-27T04:50:20.701Z,950.64
2017-06-27T04:51:20.699Z,950.59
2017-06-27T04:52:20.697Z,950.6
2017-06-27T04:53:20.690Z,950.58
2017-06-27T04:54:20.688Z,950.57
2017-06-27T04:55:20.681Z,950.56
2017-06-27T04:56:20.675Z,950.57
2017-06-27T04:57:20.670Z,950.57
2017-06-27T04:58:20.668Z,950.6
2017-06-27T04:59:20.663Z,950.6
2017-06-27T05:00:20.659Z,950.6
2017-06-27T05:01:20.654Z,950.6
2017-06-27T05:02:20.656Z,950.61
2017-06-27T05:03:20.646Z,950.63
2017-06-27T05:04:20.642Z,950.61
2017-06-27T05:05:20.637Z,950.63
2017-06-27T05:06:20.634Z,950.62
2017-06-27T05:07:20.630Z,950.62
2017-06-27T05:08:20.625Z,950.61
2017-06-27T05:09:20.622Z,950.62
2017-06-27T05:10:20.618Z,950.58
2017-06-27T05:11:20.617Z,950.6
2017-06-27T05:12:20.610Z,950.58
2017-06-27T05:13:20.606Z,950.55
2017-06-27T05:14:20.603Z,950.55
2017-06-27T05:15:20.600Z,950.56
2017-06-27T05:16:20.594Z,950.55
2017-06-27T05:17:20.591Z,950.57
2017-06-27T05:18:20.590Z,950.58
2017-06-27T05:19:20.584Z,950.58
2017-06-27T05:20:20.582Z,950.52
2017-06-27T05:21:20.578Z,950.53
2017-06-27T05:22:20.576Z,950.52
2017-06-27T05:23:20.578Z,950.51
2017-06-27T05:24:20.585Z,950.51
2017-06-27T05:25:20.569Z,950.54
2017-06-27T05:26:20.563Z,950.49
2017-06-27T05:27:20.559Z,950.52
2017-06-27T05:28:20.558Z,950.5
2017-06-27T05:29:20.556Z,950.53
2017-06-27T05:30:20.550Z,950.56
2017-06-27T05:31:20.601Z,950.57
2017-06-27T05:32:20.545Z,950.6
2017-06-27T05:33:20.542Z,950.61
2017-06-27T05:34:20.542Z,950.62
2017-06-27T05:35:20.538Z,950.6
2017-06-27T05:36:20.535Z,950.63
2017-06-27T05:37:20.531Z,950.64
2017-06-27T05:38:20.530Z,950.61
2017-06-27T05:39:20.529Z,950.6
2017-06-27T05:40:20.524Z,950.63
2017-06-27T05:41:20.521Z,950.6
2017-06-27T05:42:20.519Z,950.61
2017-06-27T05:43:20.517Z,950.65
2017-06-27T05:44:20.515Z,950.68
2017-06-27T05:45:20.512Z,950.66
2017-06-27T05:46:20.509Z,950.63
2017-06-27T05:47:20.507Z,950.67
2017-06-27T05:48:20.503Z,950.63
2017-06-27T05:49:20.508Z,950.64
2017-06-27T05:50:20.500Z,950.65
2017-06-27T05:51:20.497Z,950.59
2017-06-27T05:52:20.493Z,950.61
2017-06-27T05:53:20.493Z,950.62
2017-06-27T05:54:20.501Z,950.64
2017-06-27T05:55:20.487Z,950.6
2017-06-27T05:56:20.484Z,950.61
2017-06-27T05:57:20.513Z,950.63
2017-06-27T05:58:20.483Z,950.6
2017-06-27T05:59:20.476Z,950.62
2017-06-27T06:00:20.474Z,950.58
2017-06-27T06:01:20.472Z,950.61
2017-06-27T06:02:20.469Z,950.61
2017-06-27T06:03:20.466Z,950.65
2017-06-27T06:04:20.464Z,950.71
2017-06-27T06:05:20.464Z,950.7
2017-06-27T06:06:20.459Z,950.71
2017-06-27T06:07:20.454Z,950.66
2017-06-27T06:08:20.454Z,950.69
2017-06-27T06:09:20.451Z,950.65
2017-06-27T06:10:20.448Z,950.66
2017-06-27T06:11:20.445Z,950.66
2017-06-27T06:12:20.464Z,950.66
2017-06-27T06:13:20.441Z,950.7
2017-06-27T06:14:20.438Z,950.69
2017-06-27T06:15:20.436Z,950.67
2017-06-27T06:16:20.434Z,950.7
2017-06-27T06:17:20.436Z,950.68
2017-06-27T06:18:20.428Z,950.69
2017-06-27T06:19:20.426Z,950.7
2017-06-27T06:20:20.425Z,950.7
2017-06-27T06:21:20.427Z,950.71
2017-06-27T06:22:20.420Z,950.74
2017-06-27T06:23:20.420Z,950.73
2017-06-27T06:24:20.418Z,950.75
2017-06-27T06:25:20.414Z,950.72
2017-06-27T06:26:20.414Z,950.73
2017-06-27T06:27:20.412Z,950.71
2017-06-27T06:28:20.413Z,950.74
2017-06-27T06:29:20.409Z,950.75
2017-06-27T06:30:20.407Z,950.7
2017-06-27T06:31:20.419Z,950.7
2017-06-27T06:32:20.403Z,950.69
2017-06-27T06:33:20.402Z,950.73
2017-06-27T06:34:20.402Z,950.74
2017-06-27T06:35:20.402Z,950.74
2017-06-27T06:36:20.416Z,950.77
2017-06-27T06:37:20.421Z,950.76
2017-06-27T06:38:20.398Z,950.72
2017-06-27T06:39:20.396Z,950.74
2017-06-27T06:40:20.396Z,950.75
2017-06-27T06:41:20.396Z,950.7
2017-06-27T06:42:20.394Z,950.72
2017-06-27T06:43:20.393Z,950.73
2017-06-27T06:44:20.393Z,950.75
2017-06-27T06:45:20.394Z,950.76
2017-06-27T06:46:20.391Z,950.76
2017-06-27T06:47:20.393Z,950.78
2017-06-27T06:48:20.391Z,950.79
2017-06-27T06:49:20.393Z,950.82
2017-06-27T06:50:20.392Z,950.81
2017-06-27T06:51:20.390Z,950.86
2017-06-27T06:52:20.391Z,950.87
2017-06-27T06:53:20.389Z,950.89
2017-06-27T06:54:20.391Z,950.87
2017-06-27T06:55:20.390Z,950.89
2017-06-27T06:56:20.391Z,950.92
2017-06-27T06:57:20.391Z,950.91
2017-06-27T06:58:20.391Z,950.96
2017-06-27T06:59:20.389Z,950.92
2017-06-27T07:00:20.391Z,950.95
2017-06-27T07:01:20.392Z,950.92
2017-06-27T07:02:20.431Z,950.9
2017-06-27T07:03:20.407Z,950.95
2017-06-27T07:04:20.393Z,950.96
2017-06-27T07:05:20.394Z,950.92
2017-06-27T07:06:20.392Z,950.91
2017-06-27T07:07:20.402Z,950.92
2017-06-27T07:08:20.405Z,950.91
2017-06-27T07:09:20.395Z,950.91
2017-06-27T07:10:20.397Z,950.95
2017-06-27T07:11:20.397Z,950.92
2017-06-27T07:12:20.397Z,950.91
2017-06-27T07:13:20.398Z,950.91
2017-06-27T07:14:20.399Z,950.89
2017-06-27T07:15:20.398Z,950.9
2017-06-27T07:16:20.398Z,950.89
2017-06-27T07:17:20.400Z,950.94
2017-06-27T07:18:20.400Z,950.91
2017-06-27T07:19:20.402Z,950.9
2017-06-27T07:20:20.401Z,950.95
2017-06-27T07:21:20.404Z,950.93
2017-06-27T07:22:20.404Z,950.92
2017-06-27T07:23:20.405Z,950.89
2017-06-27T07:24:20.405Z,950.91
2017-06-27T07:25:20.405Z,950.91
2017-06-27T07:26:20.408Z,950.94
2017-06-27T07:27:20.407Z,950.94
2017-06-27T07:28:20.408Z,950.96
2017-06-27T07:29:20.409Z,950.93
2017-06-27T07:30:20.426Z,950.97
2017-06-27T07:31:20.411Z,951.05
2017-06-27T07:32:20.410Z,950.98
2017-06-27T07:33:20.412Z,951.01
2017-06-27T07:34:20.412Z,951.04
2017-06-27T07:35:20.413Z,951.01
2017-06-27T07:36:26.683Z,951.05
2017-06-27T07:37:20.480Z,951.08
2017-06-27T07:38:20.416Z,951.06
2017-06-27T07:39:20.423Z,951.08
2017-06-27T07:40:20.443Z,951.05
2017-06-27T07:41:20.420Z,951.05
2017-06-27T07:42:20.419Z,951.06
2017-06-27T07:43:20.420Z,951.08
2017-06-27T07:44:20.420Z,951.08
2017-06-27T07:45:20.426Z,951.08
2017-06-27T07:46:20.422Z,951.06
2017-06-27T07:47:20.423Z,951.1
2017-06-27T07:48:20.424Z,951.1
2017-06-27T07:49:20.424Z,951.06
2017-06-27T07:50:20.425Z,951.02
2017-06-27T07:51:20.425Z,951.02
2017-06-27T07:52:20.426Z,951.05
2017-06-27T07:53:20.426Z,951.03
2017-06-27T07:54:20.428Z,951.05
2017-06-27T07:55:20.428Z,951.06
2017-06-27T07:56:20.429Z,951.04
2017-06-27T07:57:20.429Z,951.05
2017-06-27T07:58:20.431Z,951.07
2017-06-27T07:59:20.432Z,951.05
2017-06-27T08:00:20.433Z,951.04
2017-06-27T08:01:20.433Z,951.05
2017-06-27T08:02:20.435Z,951.07
2017-06-27T08:03:20.435Z,951.06
2017-06-27T08:04:20.435Z,951.07
2017-06-27T08:05:20.437Z,951.06
2017-06-27T08:06:20.438Z,951.08
2017-06-27T08:07:20.438Z,951.08
2017-06-27T08:08:20.439Z,951.06
2017-06-27T08:09:20.439Z,951.12
2017-06-27T08:10:20.441Z,951.11
2017-06-27T08:11:20.441Z,951.12
2017-06-27T08:12:20.442Z,951.16
2017-06-27T08:13:20.443Z,951.13
2017-06-27T08:14:20.443Z,951.09
2017-06-27T08:15:20.443Z,951.08
2017-06-27T08:16:20.445Z,951.09
2017-06-27T08:17:20.449Z,951.09
2017-06-27T08:18:20.455Z,951.1
2017-06-27T08:19:20.445Z,951.09
2017-06-27T08:20:20.447Z,951.1
2017-06-27T08:21:20.499Z,951.1
2017-06-27T08:22:20.447Z,951.11
2017-06-27T08:23:20.449Z,951.08
2017-06-27T08:24:20.448Z,951.13
2017-06-27T08:25:20.449Z,951.09
2017-06-27T08:26:20.450Z,951.08
2017-06-27T08:27:20.451Z,951.1
2017-06-27T08:28:20.451Z,951.05
2017-06-27T08:29:20.464Z,951.07
2017-06-27T08:30:20.450Z,951.05
2017-06-27T08:31:20.451Z,951.07
2017-06-27T08:32:20.452Z,951.06
2017-06-27T08:33:20.452Z,951.09
2017-06-27T08:34:20.452Z,951.08
2017-06-27T08:35:20.453Z,951.06
2017-06-27T08:36:20.454Z,951.07
2017-06-27T08:37:20.453Z,951.11
2017-06-27T08:38:20.455Z,951.07
2017-06-27T08:39:20.455Z,951.03
2017-06-27T08:40:20.658Z,951.07
2017-06-27T08:41:20.459Z,951.06
2017-06-27T08:42:20.456Z,951.03
2017-06-27T08:43:20.462Z,951.06
2017-06-27T08:44:20.455Z,951.01
2017-06-27T08:45:20.457Z,951.02
2017-06-27T08:46:20.456Z,950.99
2017-06-27T08:47:20.457Z,950.97
2017-06-27T08:48:20.457Z,950.99
2017-06-27T08:49:20.459Z,951
2017-06-27T08:50:20.459Z,951.02
2017-06-27T08:51:20.519Z,950.99
2017-06-27T08:52:20.457Z,951.01
2017-06-27T08:53:20.460Z,951.06
2017-06-27T08:54:20.460Z,951.01
2017-06-27T08:55:20.460Z,951.01
2017-06-27T08:56:20.460Z,951
2017-06-27T08:57:20.460Z,951
2017-06-27T08:58:20.460Z,950.98
2017-06-27T08:59:20.460Z,950.96
2017-06-27T09:00:20.460Z,950.91
2017-06-27T09:01:20.467Z,950.92
2017-06-27T09:02:20.461Z,950.93
2017-06-27T09:03:20.461Z,950.93
2017-06-27T09:04:20.460Z,950.93
2017-06-27T09:05:20.461Z,950.91
2017-06-27T09:06:20.483Z,950.91
2017-06-27T09:07:20.462Z,950.89
2017-06-27T09:08:20.466Z,950.86
2017-06-27T09:09:20.462Z,950.9
2017-06-27T09:10:20.462Z,950.89
2017-06-27T09:11:20.462Z,950.87
2017-06-27T09:12:20.476Z,950.9
2017-06-27T09:13:20.463Z,950.93
2017-06-27T09:14:20.460Z,950.89
2017-06-27T09:15:20.462Z,950.89
2017-06-27T09:16:20.461Z,950.89
2017-06-27T09:17:20.472Z,950.93
2017-06-27T09:18:20.462Z,950.91
2017-06-27T09:19:20.462Z,950.89
2017-06-27T09:20:20.461Z,950.87
2017-06-27T09:21:20.463Z,950.87
2017-06-27T09:22:20.461Z,950.9
2017-06-27T09:23:20.464Z,950.87
2017-06-27T09:24:20.462Z,950.88
2017-06-27T09:25:20.462Z,950.83
2017-06-27T09:26:20.463Z,950.88
2017-06-27T09:27:20.464Z,950.84
2017-06-27T09:28:20.462Z,950.86
2017-06-27T09:29:20.463Z,950.9
2017-06-27T09:30:20.464Z,950.87
2017-06-27T09:31:20.463Z,950.86
2017-06-27T09:32:20.462Z,950.83
2017-06-27T09:33:20.466Z,950.81
2017-06-27T09:34:20.466Z,950.79
2017-06-27T09:35:20.469Z,950.73
2017-06-27T09:36:20.464Z,950.73
2017-06-27T09:37:20.465Z,950.76
2017-06-27T09:38:20.465Z,950.74
2017-06-27T09:39:20.467Z,950.72
2017-06-27T09:40:20.467Z,950.72
2017-06-27T09:41:20.467Z,950.72
2017-06-27T09:42:20.465Z,950.71
2017-06-27T09:43:20.468Z,950.71
2017-06-27T09:44:20.469Z,950.68
2017-06-27T09:45:20.469Z,950.67
2017-06-27T09:46:20.469Z,950.64
2017-06-27T09:47:20.469Z,950.66
2017-06-27T09:48:20.470Z,950.65
2017-06-27T09:49:20.470Z,950.68
2017-06-27T09:50:20.470Z,950.68
2017-06-27T09:51:20.471Z,950.67
2017-06-27T09:52:20.472Z,950.69
2017-06-27T09:53:20.471Z,950.69
2017-06-27T09:54:20.472Z,950.67
2017-06-27T09:55:20.473Z,950.64
2017-06-27T09:56:20.475Z,950.63
2017-06-27T09:57:20.474Z,950.62
2017-06-27T09:58:20.472Z,950.59
2017-06-27T09:59:20.474Z,950.56
2017-06-27T10:00:20.475Z,950.47
2017-06-27T10:01:20.475Z,950.5
2017-06-27T10:02:20.477Z,950.47
2017-06-27T10:03:20.476Z,950.47
2017-06-27T10:04:20.476Z,950.42
2017-06-27T10:05:20.475Z,950.4
2017-06-27T10:06:20.497Z,950.44
2017-06-27T10:07:20.477Z,950.42
2017-06-27T10:08:20.477Z,950.41
2017-06-27T10:09:20.476Z,950.45
2017-06-27T10:10:20.478Z,950.44
2017-06-27T10:11:20.478Z,950.43
2017-06-27T10:12:20.479Z,950.44
2017-06-27T10:13:20.478Z,950.43
2017-06-27T10:14:20.479Z,950.48
2017-06-27T10:15:20.476Z,950.44
2017-06-27T10:16:20.479Z,950.42
2017-06-27T10:17:20.480Z,950.4
2017-06-27T10:18:20.479Z,950.42
2017-06-27T10:19:20.478Z,950.41
2017-06-27T10:20:20.478Z,950.43
2017-06-27T10:21:20.478Z,950.42
2017-06-27T10:22:20.478Z,950.37
2017-06-27T10:23:20.499Z,950.4
2017-06-27T10:24:20.476Z,950.37
2017-06-27T10:25:20.478Z,950.41
2017-06-27T10:26:20.476Z,950.4
2017-06-27T10:27:20.487Z,950.39
2017-06-27T10:28:20.476Z,950.38
2017-06-27T10:29:20.476Z,950.41
2017-06-27T10:30:20.476Z,950.4
2017-06-27T10:31:20.475Z,950.39
2017-06-27T10:32:20.489Z,950.37
2017-06-27T10:33:20.475Z,950.42
2017-06-27T10:34:20.474Z,950.4
2017-06-27T10:35:20.475Z,950.42
2017-06-27T10:36:20.475Z,950.43
2017-06-27T10:37:20.475Z,950.43
2017-06-27T10:38:20.475Z,950.45
2017-06-27T10:39:20.475Z,950.4
2017-06-27T10:40:20.476Z,950.43
2017-06-27T10:41:20.475Z,950.43
2017-06-27T10:42:20.475Z,950.42
2017-06-27T10:43:20.482Z,950.46
2017-06-27T10:44:20.473Z,950.46
2017-06-27T10:45:20.473Z,950.44
2017-06-27T10:46:20.475Z,950.46
2017-06-27T10:47:20.475Z,950.42
2017-06-27T10:48:20.474Z,950.42
2017-06-27T10:49:20.474Z,950.44
2017-06-27T10:50:20.474Z,950.44
2017-06-27T10:51:20.477Z,950.41
2017-06-27T10:52:20.473Z,950.46
2017-06-27T10:53:20.476Z,950.43
2017-06-27T10:54:20.475Z,950.38
2017-06-27T10:55:20.475Z,950.37
2017-06-27T10:56:20.474Z,950.37
2017-06-27T10:57:20.476Z,950.36
2017-06-27T10:58:20.476Z,950.34
2017-06-27T10:59:20.474Z,950.31
2017-06-27T11:00:20.476Z,950.32
2017-06-27T11:01:20.475Z,950.3
2017-06-27T11:02:20.485Z,950.28
2017-06-27T11:03:20.492Z,950.27
2017-06-27T11:04:20.477Z,950.29
2017-06-27T11:05:20.479Z,950.28
2017-06-27T11:06:20.478Z,950.26
2017-06-27T11:07:20.477Z,950.24
2017-06-27T11:08:20.478Z,950.25
2017-06-27T11:09:20.480Z,950.24
2017-06-27T11:10:20.479Z,950.22
2017-06-27T11:11:20.480Z,950.23
2017-06-27T11:12:20.487Z,950.19
2017-06-27T11:13:20.485Z,950.2
2017-06-27T11:14:20.482Z,950.2
2017-06-27T11:15:20.482Z,950.18
2017-06-27T11:16:20.483Z,950.17
2017-06-27T11:17:20.483Z,950.18
2017-06-27T11:18:20.485Z,950.13
2017-06-27T11:19:20.485Z,950.13
2017-06-27T11:20:20.486Z,950.08
2017-06-27T11:21:20.487Z,950.06
2017-06-27T11:22:20.486Z,950.04
2017-06-27T11:23:20.490Z,950.05
2017-06-27T11:24:20.488Z,950.02
2017-06-27T11:25:20.489Z,950
2017-06-27T11:26:20.491Z,949.97
2017-06-27T11:27:20.492Z,949.92
2017-06-27T11:28:20.491Z,949.91
2017-06-27T11:29:20.492Z,949.86
2017-06-27T11:30:20.494Z,949.82
2017-06-27T11:31:20.496Z,949.85
2017-06-27T11:32:20.497Z,949.86
2017-06-27T11:33:20.498Z,949.82
2017-06-27T11:34:20.498Z,949.77
2017-06-27T11:35:20.500Z,949.72
2017-06-27T11:36:20.500Z,949.7
2017-06-27T11:37:20.501Z,949.64
2017-06-27T11:38:20.509Z,949.62
2017-06-27T11:39:20.502Z,949.62
2017-06-27T11:40:20.504Z,949.6
2017-06-27T11:41:20.504Z,949.57
2017-06-27T11:42:20.507Z,949.56
2017-06-27T11:43:20.506Z,949.54
2017-06-27T11:44:20.509Z,949.52
2017-06-27T11:45:20.510Z,949.5
2017-06-27T11:46:20.509Z,949.48
2017-06-27T11:47:20.512Z,949.49
2017-06-27T11:48:20.511Z,949.53
2017-06-27T11:49:20.513Z,949.5
2017-06-27T11:50:20.513Z,949.53
2017-06-27T11:51:20.515Z,949.52
2017-06-27T11:52:20.515Z,949.55
2017-06-27T11:53:20.517Z,949.55
2017-06-27T11:54:20.517Z,949.56
2017-06-27T11:55:20.518Z,949.57
2017-06-27T11:56:20.519Z,949.6
2017-06-27T11:57:20.521Z,949.6
2017-06-27T11:58:20.520Z,949.61
2017-06-27T11:59:20.524Z,949.66
2017-06-27T12:00:20.540Z,949.65
2017-06-27T12:01:20.544Z,949.67
2017-06-27T12:02:20.525Z,949.67
2017-06-27T12:03:20.546Z,949.61
2017-06-27T12:04:20.527Z,949.64
2017-06-27T12:05:20.527Z,949.63
2017-06-27T12:06:20.530Z,949.65
2017-06-27T12:07:20.530Z,949.59
2017-06-27T12:08:20.532Z,949.64
2017-06-27T12:09:20.533Z,949.59
2017-06-27T12:10:20.534Z,949.61
2017-06-27T12:11:20.537Z,949.58
2017-06-27T12:12:20.539Z,949.58
2017-06-27T12:13:20.540Z,949.65
2017-06-27T12:14:20.543Z,949.63
2017-06-27T12:15:20.543Z,949.64
2017-06-27T12:16:20.545Z,949.64
2017-06-27T12:17:20.547Z,949.58
2017-06-27T12:18:20.548Z,949.6
2017-06-27T12:19:20.549Z,949.59
2017-06-27T12:20:20.550Z,949.57
2017-06-27T12:21:20.553Z,949.55
2017-06-27T12:22:20.556Z,949.57
2017-06-27T12:23:20.558Z,949.54
2017-06-27T12:24:20.559Z,949.56
2017-06-27T12:25:20.560Z,949.49
2017-06-27T12:26:20.584Z,949.5
2017-06-27T12:27:20.563Z,949.55
2017-06-27T12:28:20.566Z,949.57
2017-06-27T12:29:20.567Z,949.54
2017-06-27T12:30:20.568Z,949.54
2017-06-27T12:31:20.570Z,949.54